K32 EFRO-EFRO

Flight info

Callsign K32
Flight time 1h 18m
Altitude 2500
Route JERJO SODANKYLA JERJO
Aircraft G115/L-SDGR/C

Departure

Time 2026-04-29 16:10
Airport Rovaniemi Airport (EFRO)

Arrival

Time 2026-04-29 17:29
Airport Rovaniemi Airport (EFRO)
Time Latitude Longitude Altitude Speed Heading
2026-04-29 15:48 66.56708 25.82465 650 ft 0 kts 188°
2026-04-29 15:51 66.56693 25.82459 649 ft 0 kts 188°
2026-04-29 15:54 66.56685 25.82464 648 ft 3 kts 148°
2026-04-29 15:54 66.56680 25.82506 648 ft 1 kts 77°
2026-04-29 15:54 66.56680 25.82507 648 ft 1 kts 77°
2026-04-29 15:55 66.56681 25.82520 648 ft 0 kts 77°
2026-04-29 15:56 66.56686 25.82575 650 ft 9 kts 76°
2026-04-29 15:56 66.56723 25.82789 650 ft 15 kts 44°
2026-04-29 15:57 66.56810 25.82958 634 ft 17 kts 37°
2026-04-29 15:57 66.56898 25.83122 630 ft 11 kts 37°
2026-04-29 15:57 66.56977 25.83262 626 ft 17 kts 21°
2026-04-29 15:57 66.57099 25.83305 624 ft 19 kts 353°
2026-04-29 15:58 66.57219 25.83249 623 ft 13 kts 352°
2026-04-29 15:58 66.57313 25.83253 618 ft 14 kts 43°
2026-04-29 15:58 66.57318 25.83447 614 ft 13 kts 97°
2026-04-29 15:58 66.57301 25.83746 606 ft 21 kts 96°
2026-04-29 15:59 66.57295 25.83868 603 ft 7 kts 97°
2026-04-29 15:59 66.57284 25.84040 604 ft 7 kts 98°
2026-04-29 15:59 66.57279 25.84128 600 ft 2 kts 98°
2026-04-29 15:59 66.57278 25.84139 600 ft 0 kts 99°
2026-04-29 16:00 66.57278 25.84141 598 ft 1 kts 99°
2026-04-29 16:00 66.57260 25.84248 599 ft 10 kts 131°
2026-04-29 16:00 66.57191 25.84337 600 ft 13 kts 167°
2026-04-29 16:01 66.57107 25.84230 606 ft 15 kts 217°
2026-04-29 16:01 66.57025 25.84077 609 ft 17 kts 217°
2026-04-29 16:01 66.56889 25.83817 608 ft 51 kts 217°
2026-04-29 16:01 66.56519 25.83119 692 ft 74 kts 217°
2026-04-29 16:02 66.56101 25.82285 853 ft 80 kts 219°
2026-04-29 16:02 66.55599 25.81385 932 ft 96 kts 217°
2026-04-29 16:02 66.55060 25.80260 1045 ft 104 kts 232°
2026-04-29 16:02 66.54806 25.78554 1099 ft 111 kts 270°
2026-04-29 16:03 66.55165 25.76773 1037 ft 122 kts 315°
2026-04-29 16:03 66.55859 25.75664 1101 ft 123 kts 332°
2026-04-29 16:03 66.56671 25.74869 1089 ft 125 kts 336°
2026-04-29 16:03 66.57474 25.74083 1069 ft 125 kts 334°
2026-04-29 16:04 66.58261 25.73315 1131 ft 121 kts 335°
2026-04-29 16:04 66.59059 25.72581 1118 ft 124 kts 336°
2026-04-29 16:04 66.59840 25.71753 1165 ft 124 kts 334°
2026-04-29 16:04 66.60633 25.70876 1165 ft 126 kts 333°
2026-04-29 16:05 66.61445 25.70050 1189 ft 125 kts 337°
2026-04-29 16:05 66.62264 25.69247 1181 ft 126 kts 334°
2026-04-29 16:05 66.63076 25.68330 1082 ft 128 kts 335°
2026-04-29 16:05 66.63898 25.67492 1049 ft 125 kts 337°
2026-04-29 16:06 66.64701 25.66757 1049 ft 122 kts 336°
2026-04-29 16:06 66.65510 25.65992 969 ft 126 kts 335°
2026-04-29 16:06 66.66333 25.65181 943 ft 125 kts 334°
2026-04-29 16:06 66.67131 25.64483 1024 ft 120 kts 338°
2026-04-29 16:07 66.67906 25.63879 1089 ft 114 kts 341°
2026-04-29 16:07 66.68422 25.63547 1068 ft 117 kts 343°
2026-04-29 16:07 66.69532 25.63344 1023 ft 122 kts
2026-04-29 16:07 66.70361 25.63591 1073 ft 121 kts
2026-04-29 16:08 66.71228 25.63931 967 ft 129 kts
2026-04-29 16:08 66.72089 25.64397 999 ft 126 kts
2026-04-29 16:08 66.72647 25.64654 1060 ft 121 kts
2026-04-29 16:08 66.73502 25.64755 949 ft 128 kts 357°
2026-04-29 16:09 66.74392 25.64909 875 ft 126 kts
2026-04-29 16:09 66.75254 25.65163 901 ft 122 kts
2026-04-29 16:09 66.76372 25.65324 902 ft 119 kts
2026-04-29 16:09 66.76914 25.65471 1006 ft 112 kts
2026-04-29 16:10 66.77675 25.65985 1064 ft 119 kts 24°
2026-04-29 16:10 66.78410 25.66903 1146 ft 120 kts 21°
2026-04-29 16:10 66.79207 25.67673 1178 ft 126 kts 18°
2026-04-29 16:10 66.79995 25.68606 1287 ft 124 kts 19°
2026-04-29 16:11 66.80785 25.69420 1310 ft 122 kts 18°
2026-04-29 16:11 66.81579 25.70260 1328 ft 126 kts 19°
2026-04-29 16:11 66.82379 25.71273 1295 ft 130 kts 26°
2026-04-29 16:11 66.83171 25.72431 1228 ft 134 kts 26°
2026-04-29 16:12 66.83962 25.73603 1278 ft 128 kts 24°
2026-04-29 16:12 66.84789 25.74630 1199 ft 135 kts 20°
2026-04-29 16:12 66.85642 25.75652 1139 ft 135 kts 23°
2026-04-29 16:12 66.86474 25.76682 1172 ft 132 kts 21°
2026-04-29 16:13 66.87306 25.77581 1230 ft 127 kts 17°
2026-04-29 16:13 66.88130 25.78571 1176 ft 133 kts 24°
2026-04-29 16:13 66.88916 25.79643 1267 ft 126 kts 25°
2026-04-29 16:13 66.89704 25.80709 1256 ft 129 kts 24°
2026-04-29 16:14 66.90466 25.81715 1370 ft 119 kts 22°
2026-04-29 16:14 66.91203 25.82580 1465 ft 121 kts 20°
2026-04-29 16:14 66.91973 25.83501 1470 ft 124 kts 19°
2026-04-29 16:14 66.92771 25.84354 1541 ft 124 kts 19°
2026-04-29 16:15 66.93587 25.85232 1530 ft 125 kts 16°
2026-04-29 16:15 66.94397 25.86076 1557 ft 122 kts 17°
2026-04-29 16:15 66.95192 25.86839 1601 ft 124 kts 16°
2026-04-29 16:15 66.96019 25.87635 1579 ft 128 kts 17°
2026-04-29 16:16 66.96836 25.88464 1655 ft 124 kts 21°
2026-04-29 16:16 66.97598 25.89427 1731 ft 123 kts 20°
2026-04-29 16:16 66.98371 25.90401 1791 ft 123 kts 22°
2026-04-29 16:16 66.99111 25.91465 1866 ft 122 kts 27°
2026-04-29 16:17 66.99829 25.92646 1932 ft 124 kts 32°
2026-04-29 16:17 67.00510 25.94030 1970 ft 127 kts 37°
2026-04-29 16:17 67.01187 25.95533 1997 ft 129 kts 38°
2026-04-29 16:17 67.01865 25.97099 2023 ft 134 kts 39°
2026-04-29 16:18 67.02541 25.98754 2103 ft 133 kts 42°
2026-04-29 16:18 67.03182 26.00381 2232 ft 128 kts 40°
2026-04-29 16:18 67.03829 26.01985 2276 ft 131 kts 43°
2026-04-29 16:18 67.04487 26.03575 2356 ft 130 kts 38°
2026-04-29 16:19 67.05184 26.05082 2380 ft 133 kts 36°
2026-04-29 16:19 67.05915 26.06541 2407 ft 133 kts 33°
2026-04-29 16:19 67.06668 26.07953 2384 ft 137 kts 32°
2026-04-29 16:19 67.07429 26.09371 2458 ft 130 kts 33°
2026-04-29 16:20 67.08183 26.10789 2350 ft 139 kts 34°
2026-04-29 16:20 67.08965 26.12274 2266 ft 140 kts 35°
2026-04-29 16:20 67.09750 26.13763 2177 ft 141 kts 36°
2026-04-29 16:20 67.10500 26.15364 2162 ft 137 kts 39°
2026-04-29 16:21 67.11223 26.16901 2174 ft 136 kts 37°
2026-04-29 16:21 67.11950 26.18465 2178 ft 135 kts 40°
2026-04-29 16:21 67.12673 26.20055 2096 ft 140 kts 39°
2026-04-29 16:21 67.13386 26.21661 2153 ft 133 kts 40°
2026-04-29 16:22 67.14103 26.23316 1986 ft 142 kts 41°
2026-04-29 16:22 67.14835 26.24996 1969 ft 138 kts 40°
2026-04-29 16:22 67.15545 26.26567 1974 ft 136 kts 38°
2026-04-29 16:22 67.16278 26.28125 1853 ft 140 kts 38°
2026-04-29 16:23 67.17049 26.29714 1785 ft 139 kts 37°
2026-04-29 16:23 67.17820 26.31176 1758 ft 137 kts 33°
2026-04-29 16:23 67.18620 26.32516 1691 ft 139 kts 33°
2026-04-29 16:23 67.19376 26.33996 1670 ft 136 kts 38°
2026-04-29 16:24 67.20108 26.35542 1630 ft 137 kts 39°
2026-04-29 16:24 67.20850 26.37071 1583 ft 137 kts 37°
2026-04-29 16:24 67.21615 26.38598 1495 ft 138 kts 36°
2026-04-29 16:24 67.22350 26.40101 1490 ft 134 kts 37°
2026-04-29 16:25 67.23069 26.41690 1392 ft 137 kts 40°
2026-04-29 16:25 67.23789 26.43225 1383 ft 134 kts 36°
2026-04-29 16:25 67.24537 26.44690 1318 ft 135 kts 37°
2026-04-29 16:25 67.25264 26.46219 1273 ft 136 kts 38°
2026-04-29 16:26 67.25985 26.47747 1295 ft 132 kts 39°
2026-04-29 16:26 67.26681 26.49275 1343 ft 129 kts 40°
2026-04-29 16:26 67.27314 26.50892 1374 ft 130 kts 48°
2026-04-29 16:26 67.27885 26.52748 1347 ft 132 kts 51°
2026-04-29 16:27 67.28488 26.54516 1353 ft 130 kts 46°
2026-04-29 16:27 67.29097 26.56252 1387 ft 129 kts 47°
2026-04-29 16:27 67.29709 26.57953 1411 ft 129 kts 45°
2026-04-29 16:27 67.30337 26.59646 1406 ft 130 kts 45°
2026-04-29 16:28 67.30997 26.61260 1401 ft 132 kts 38°
2026-04-29 16:28 67.31783 26.62542 1342 ft 134 kts 24°
2026-04-29 16:28 67.32639 26.63359 1415 ft 128 kts 15°
2026-04-29 16:28 67.33495 26.63784 1445 ft 128 kts
2026-04-29 16:29 67.34377 26.63882 1498 ft 126 kts 357°
2026-04-29 16:29 67.35251 26.63823 1514 ft 127 kts 360°
2026-04-29 16:29 67.36123 26.63923 1454 ft 119 kts 357°
2026-04-29 16:29 67.36891 26.63718 1280 ft 105 kts 345°
2026-04-29 16:30 67.37558 26.63210 1096 ft 97 kts 342°
2026-04-29 16:30 67.38207 26.62769 891 ft 94 kts 347°
2026-04-29 16:30 67.38831 26.62353 680 ft 92 kts 345°
2026-04-29 16:30 67.39420 26.61959 616 ft 86 kts 345°
2026-04-29 16:31 67.40043 26.61574 818 ft 94 kts 348°
2026-04-29 16:31 67.40600 26.60769 1016 ft 98 kts 294°
2026-04-29 16:31 67.40657 26.58863 1032 ft 113 kts 261°
2026-04-29 16:31 67.40186 26.57495 1209 ft 115 kts 187°
2026-04-29 16:32 67.39358 26.57909 1224 ft 125 kts 168°
2026-04-29 16:32 67.38489 26.58450 1236 ft 131 kts 167°
2026-04-29 16:32 67.37636 26.59140 1216 ft 127 kts 144°
2026-04-29 16:32 67.37368 26.61151 1059 ft 116 kts 87°
2026-04-29 16:33 67.38271 26.62731 873 ft 97 kts 346°
2026-04-29 16:33 67.38882 26.62312 623 ft 79 kts 345°
2026-04-29 16:33 67.39363 26.62002 638 ft 73 kts 346°
2026-04-29 16:34 67.39850 26.61713 704 ft 78 kts 343°
2026-04-29 16:34 67.40319 26.61183 810 ft 71 kts 294°
2026-04-29 16:34 67.40363 26.59848 853 ft 80 kts 268°
2026-04-29 16:34 67.40017 26.58661 964 ft 95 kts 187°
2026-04-29 16:35 67.39295 26.58933 1015 ft 115 kts 169°
2026-04-29 16:35 67.38482 26.59388 1082 ft 123 kts 168°
2026-04-29 16:35 67.37646 26.59965 1172 ft 124 kts 160°
2026-04-29 16:35 67.37274 26.61817 1196 ft 130 kts 85°
2026-04-29 16:36 67.37754 26.63060 1097 ft 104 kts 348°
2026-04-29 16:36 67.38385 26.62660 840 ft 87 kts 344°
2026-04-29 16:36 67.38956 26.62275 609 ft 79 kts 345°
2026-04-29 16:36 67.39434 26.61955 652 ft 75 kts 345°
2026-04-29 16:37 67.40013 26.61557 780 ft 95 kts 345°
2026-04-29 16:37 67.40384 26.60491 1040 ft 91 kts 270°
2026-04-29 16:37 67.40293 26.58723 1151 ft 102 kts 233°
2026-04-29 16:37 67.39845 26.58303 1157 ft 112 kts 173°
2026-04-29 16:38 67.38776 26.59063 1111 ft 123 kts 165°
2026-04-29 16:38 67.37962 26.59742 1158 ft 122 kts 163°
2026-04-29 16:38 67.37471 26.61219 1086 ft 117 kts 85°
2026-04-29 16:38 67.37889 26.62676 1035 ft 104 kts 12°
2026-04-29 16:39 67.38545 26.62547 782 ft 83 kts 342°
2026-04-29 16:39 67.39072 26.62198 606 ft 70 kts 345°
2026-04-29 16:39 67.39503 26.61909 657 ft 65 kts 344°
2026-04-29 16:39 67.39937 26.61616 784 ft 63 kts 346°
2026-04-29 16:40 67.40312 26.60951 895 ft 79 kts 279°
2026-04-29 16:40 67.40232 26.59423 1014 ft 95 kts 257°
2026-04-29 16:40 67.40013 26.57754 1216 ft 99 kts 224°
2026-04-29 16:40 67.39327 26.57811 1299 ft 114 kts 162°
2026-04-29 16:41 67.38554 26.58440 1298 ft 119 kts 163°
2026-04-29 16:41 67.37778 26.59135 1336 ft 120 kts 162°
2026-04-29 16:41 67.37390 26.60825 1314 ft 127 kts 87°
2026-04-29 16:41 67.37657 26.62675 1292 ft 97 kts 26°
2026-04-29 16:42 67.38264 26.62747 970 ft 81 kts 345°
2026-04-29 16:42 67.38772 26.62398 715 ft 70 kts 347°
2026-04-29 16:42 67.39221 26.62096 616 ft 61 kts 345°
2026-04-29 16:42 67.39715 26.61763 677 ft 86 kts 343°
2026-04-29 16:43 67.40269 26.61095 892 ft 90 kts 295°
2026-04-29 16:43 67.40311 26.59368 1008 ft 104 kts 263°
2026-04-29 16:43 67.39917 26.58029 1222 ft 105 kts 188°
2026-04-29 16:43 67.39146 26.58452 1267 ft 117 kts 167°
2026-04-29 16:44 67.38375 26.58990 1376 ft 114 kts 165°
2026-04-29 16:44 67.37992 26.60531 1258 ft 115 kts 85°
2026-04-29 16:44 67.38203 26.62358 1108 ft 87 kts 39°
2026-04-29 16:44 67.38741 26.62420 747 ft 81 kts 344°
2026-04-29 16:45 67.39242 26.62077 607 ft 67 kts 346°
2026-04-29 16:45 67.39756 26.61726 707 ft 86 kts 345°
2026-04-29 16:45 67.40283 26.61094 1008 ft 80 kts 300°
2026-04-29 16:45 67.40325 26.59521 1107 ft 97 kts 256°
2026-04-29 16:46 67.39905 26.58279 1306 ft 103 kts 193°
2026-04-29 16:46 67.39110 26.58476 1257 ft 125 kts 166°
2026-04-29 16:46 67.38269 26.59262 1146 ft 129 kts 159°
2026-04-29 16:46 67.37464 26.60209 1052 ft 125 kts 155°
2026-04-29 16:47 67.37151 26.61811 1164 ft 110 kts 67°
2026-04-29 16:47 67.37742 26.62948 1053 ft 108 kts
2026-04-29 16:47 67.38428 26.62632 779 ft 91 kts 342°
2026-04-29 16:47 67.38959 26.62271 619 ft 70 kts 345°
2026-04-29 16:48 67.39400 26.61972 639 ft 67 kts 346°
2026-04-29 16:48 67.39872 26.61664 774 ft 77 kts 346°
2026-04-29 16:48 67.40377 26.61172 1031 ft 77 kts 304°
2026-04-29 16:48 67.40387 26.59577 1043 ft 103 kts 258°
2026-04-29 16:49 67.40038 26.58031 1227 ft 103 kts 201°
2026-04-29 16:49 67.39267 26.58301 1148 ft 127 kts 160°
2026-04-29 16:49 67.38424 26.59108 1153 ft 130 kts 161°
2026-04-29 16:49 67.37595 26.59884 1176 ft 121 kts 154°
2026-04-29 16:50 67.37300 26.61686 1134 ft 119 kts 77°
2026-04-29 16:50 67.37759 26.63049 1175 ft 101 kts 356°
2026-04-29 16:50 67.38483 26.62584 779 ft 102 kts 345°
2026-04-29 16:50 67.39056 26.62202 606 ft 71 kts 345°
2026-04-29 16:51 67.39548 26.61876 674 ft 81 kts 345°
2026-04-29 16:51 67.40148 26.61492 854 ft 94 kts 342°
2026-04-29 16:51 67.40431 26.60255 1016 ft 99 kts 248°
2026-04-29 16:51 67.40179 26.58460 1106 ft 105 kts 240°
2026-04-29 16:52 67.39480 26.58027 1053 ft 122 kts 173°
2026-04-29 16:52 67.38618 26.58575 1033 ft 131 kts 164°
2026-04-29 16:52 67.37804 26.59287 1328 ft 116 kts 160°
2026-04-29 16:52 67.37141 26.60280 1671 ft 108 kts 124°
2026-04-29 16:53 67.37128 26.62288 1790 ft 118 kts 70°
2026-04-29 16:53 67.37619 26.63143 1945 ft 78 kts 359°
2026-04-29 16:53 67.38161 26.62876 1596 ft 82 kts 334°
2026-04-29 16:53 67.38629 26.63278 1334 ft 86 kts 72°
2026-04-29 16:54 67.38346 26.64322 1118 ft 80 kts 186°
2026-04-29 16:54 67.38126 26.63278 910 ft 80 kts 296°
2026-04-29 16:54 67.38575 26.62532 762 ft 76 kts 345°
2026-04-29 16:54 67.39084 26.62186 615 ft 67 kts 345°
2026-04-29 16:55 67.39371 26.61995 615 ft 72 kts 346°
2026-04-29 16:55 67.39927 26.61633 781 ft 88 kts 341°
2026-04-29 16:55 67.40468 26.60017 1008 ft 102 kts 291°
2026-04-29 16:55 67.40724 26.58181 1120 ft 113 kts 286°
2026-04-29 16:56 67.40871 26.56840 1225 ft 115 kts 282°
2026-04-29 16:56 67.41049 26.54797 1401 ft 116 kts 282°
2026-04-29 16:56 67.41245 26.52764 1543 ft 118 kts 283°
2026-04-29 16:56 67.41447 26.50708 1747 ft 115 kts 282°
2026-04-29 16:57 67.41647 26.48697 1904 ft 116 kts 284°
2026-04-29 16:57 67.41863 26.46676 2049 ft 117 kts 284°
2026-04-29 16:57 67.42089 26.44618 2159 ft 120 kts 284°
2026-04-29 16:57 67.42309 26.42456 2174 ft 126 kts 284°
2026-04-29 16:58 67.42522 26.40299 2274 ft 124 kts 281°
2026-04-29 16:58 67.42699 26.38049 2268 ft 128 kts 279°
2026-04-29 16:58 67.42854 26.35746 2299 ft 129 kts 278°
2026-04-29 16:58 67.42766 26.33462 2301 ft 130 kts 248°
2026-04-29 16:59 67.42204 26.31672 2323 ft 131 kts 216°
2026-04-29 16:59 67.41379 26.30519 2241 ft 136 kts 208°
2026-04-29 16:59 67.40553 26.29544 2336 ft 129 kts 206°
2026-04-29 16:59 67.39709 26.28659 2360 ft 131 kts 202°
2026-04-29 17:00 67.38862 26.27791 2385 ft 130 kts 205°
2026-04-29 17:00 67.38026 26.26950 2409 ft 129 kts 202°
2026-04-29 17:00 67.37177 26.26182 2456 ft 129 kts 201°
2026-04-29 17:00 67.36315 26.25493 2463 ft 130 kts 202°
2026-04-29 17:01 67.35464 26.24657 2464 ft 130 kts 204°
2026-04-29 17:01 67.34621 26.23812 2510 ft 129 kts 204°
2026-04-29 17:01 67.33801 26.23031 2661 ft 122 kts 202°
2026-04-29 17:01 67.33000 26.22342 2762 ft 122 kts 201°
2026-04-29 17:02 67.32187 26.21674 2839 ft 124 kts 200°
2026-04-29 17:02 67.31354 26.21111 2941 ft 124 kts 197°
2026-04-29 17:02 67.30515 26.20508 3000 ft 124 kts 202°
2026-04-29 17:02 67.29708 26.19812 3094 ft 123 kts 202°
2026-04-29 17:03 67.28876 26.19225 3170 ft 125 kts 198°
2026-04-29 17:03 67.28048 26.18644 3263 ft 123 kts 201°
2026-04-29 17:03 67.27232 26.17992 3350 ft 122 kts 201°
2026-04-29 17:03 67.26412 26.17356 3380 ft 124 kts 202°
2026-04-29 17:04 67.25591 26.16616 3409 ft 125 kts 206°
2026-04-29 17:04 67.24802 26.15735 3470 ft 123 kts 209°
2026-04-29 17:04 67.24026 26.14844 3541 ft 123 kts 208°
2026-04-29 17:04 67.23229 26.13968 3537 ft 126 kts 207°
2026-04-29 17:05 67.22403 26.13121 3521 ft 129 kts 205°
2026-04-29 17:05 67.21549 26.12352 3507 ft 130 kts 202°
2026-04-29 17:05 67.20686 26.11631 3516 ft 129 kts 202°
2026-04-29 17:05 67.19854 26.10990 3666 ft 122 kts 203°
2026-04-29 17:06 67.19069 26.10253 3769 ft 119 kts 205°
2026-04-29 17:06 67.18281 26.09497 3788 ft 123 kts 205°
2026-04-29 17:06 67.17468 26.08718 3791 ft 126 kts 205°
2026-04-29 17:06 67.16652 26.07984 3827 ft 126 kts 203°
2026-04-29 17:07 67.15816 26.07281 3848 ft 127 kts 203°
2026-04-29 17:07 67.14984 26.06577 3888 ft 126 kts 203°
2026-04-29 17:07 67.14152 26.05890 3922 ft 126 kts 202°
2026-04-29 17:07 67.13314 26.05277 3964 ft 126 kts 200°
2026-04-29 17:08 67.12455 26.04695 3935 ft 128 kts 201°
2026-04-29 17:08 67.11600 26.04029 3912 ft 128 kts 203°
2026-04-29 17:08 67.10751 26.03297 3898 ft 129 kts 203°
2026-04-29 17:08 67.09896 26.02625 3932 ft 127 kts 200°
2026-04-29 17:09 67.09059 26.02019 4019 ft 124 kts 203°
2026-04-29 17:09 67.08230 26.01223 3923 ft 131 kts 207°
2026-04-29 17:09 67.07379 26.00285 3800 ft 135 kts 206°
2026-04-29 17:09 67.06497 25.99321 3646 ft 139 kts 206°
2026-04-29 17:10 67.05574 25.98370 3401 ft 145 kts 205°
2026-04-29 17:10 67.04646 25.97451 3305 ft 140 kts 205°
2026-04-29 17:10 67.03782 25.96514 3266 ft 136 kts 207°
2026-04-29 17:10 67.02907 25.95595 3164 ft 137 kts 205°
2026-04-29 17:11 67.01991 25.94756 2929 ft 143 kts 203°
2026-04-29 17:11 67.01026 25.93889 2583 ft 150 kts 202°
2026-04-29 17:11 67.00023 25.93058 2278 ft 151 kts 201°
2026-04-29 17:11 66.99019 25.92254 2006 ft 149 kts 201°
2026-04-29 17:12 66.98022 25.91528 1786 ft 148 kts 199°
2026-04-29 17:12 66.97034 25.90911 1619 ft 146 kts 197°
2026-04-29 17:12 66.96092 25.90198 1616 ft 136 kts 204°
2026-04-29 17:12 66.95516 25.89647 1668 ft 131 kts 206°
2026-04-29 17:13 66.94364 25.88546 1561 ft 137 kts 205°
2026-04-29 17:13 66.93480 25.87611 1402 ft 138 kts 212°
2026-04-29 17:13 66.92730 25.86147 1353 ft 132 kts 222°
2026-04-29 17:13 66.92020 25.84629 1312 ft 132 kts 223°
2026-04-29 17:14 66.91401 25.82900 1283 ft 129 kts 236°
2026-04-29 17:14 66.90906 25.81041 1317 ft 125 kts 238°
2026-04-29 17:14 66.90479 25.79119 1360 ft 126 kts 243°
2026-04-29 17:14 66.90089 25.77093 1273 ft 132 kts 249°
2026-04-29 17:15 66.89748 25.74868 1186 ft 134 kts 246°
2026-04-29 17:15 66.89334 25.72742 1116 ft 135 kts 244°
2026-04-29 17:15 66.88929 25.70687 1206 ft 130 kts 244°
2026-04-29 17:15 66.88487 25.68592 1111 ft 135 kts 242°
2026-04-29 17:16 66.88062 25.66493 1112 ft 132 kts 245°
2026-04-29 17:16 66.87664 25.64441 1207 ft 128 kts 244°
2026-04-29 17:16 66.87282 25.62400 1228 ft 127 kts 250°
2026-04-29 17:16 66.86936 25.60405 1335 ft 121 kts 238°
2026-04-29 17:17 66.86402 25.58746 1402 ft 124 kts 230°
2026-04-29 17:17 66.85837 25.57078 1450 ft 125 kts 231°
2026-04-29 17:17 66.85249 25.55423 1477 ft 127 kts 228°
2026-04-29 17:17 66.84616 25.53811 1379 ft 133 kts 226°
2026-04-29 17:18 66.83942 25.52160 1292 ft 134 kts 226°
2026-04-29 17:18 66.83247 25.50614 1262 ft 130 kts 221°
2026-04-29 17:18 66.82525 25.49202 1245 ft 130 kts 218°
2026-04-29 17:18 66.81763 25.47924 1199 ft 131 kts 213°
2026-04-29 17:19 66.80982 25.46817 1299 ft 127 kts 212°
2026-04-29 17:19 66.80208 25.45732 1373 ft 126 kts 212°
2026-04-29 17:19 66.79414 25.44834 1462 ft 126 kts 201°
2026-04-29 17:19 66.78537 25.44441 1478 ft 130 kts 190°
2026-04-29 17:20 66.77610 25.44485 1498 ft 135 kts 180°
2026-04-29 17:20 66.76675 25.44792 1530 ft 135 kts 177°
2026-04-29 17:20 66.75767 25.45217 1594 ft 135 kts 174°
2026-04-29 17:20 66.74843 25.45651 1653 ft 133 kts 176°
2026-04-29 17:21 66.73939 25.45879 1792 ft 128 kts 183°
2026-04-29 17:21 66.73030 25.45974 1734 ft 135 kts 183°
2026-04-29 17:21 66.72076 25.46403 1612 ft 142 kts 164°
2026-04-29 17:21 66.71237 25.47741 1558 ft 148 kts 141°
2026-04-29 17:22 66.70621 25.49931 1350 ft 157 kts 118°
2026-04-29 17:22 66.70221 25.52523 1146 ft 158 kts 112°
2026-04-29 17:22 66.69866 25.55141 1124 ft 155 kts 111°
2026-04-29 17:22 66.69549 25.57632 1191 ft 147 kts 109°
2026-04-29 17:23 66.69263 25.60137 1075 ft 152 kts 105°
2026-04-29 17:23 66.69001 25.62656 1085 ft 147 kts 112°
2026-04-29 17:23 66.68533 25.64908 1084 ft 148 kts 124°
2026-04-29 17:23 66.67925 25.66987 1010 ft 146 kts 141°
2026-04-29 17:24 66.67123 25.68430 1089 ft 137 kts 156°
2026-04-29 17:24 66.66268 25.69423 1152 ft 136 kts 165°
2026-04-29 17:24 66.65388 25.70328 1196 ft 136 kts 162°
2026-04-29 17:24 66.64524 25.71262 1276 ft 134 kts 164°
2026-04-29 17:25 66.63645 25.72009 1330 ft 133 kts 169°
2026-04-29 17:25 66.62762 25.72706 1431 ft 132 kts 168°
2026-04-29 17:25 66.61878 25.73384 1504 ft 135 kts 167°
2026-04-29 17:25 66.60969 25.74129 1488 ft 140 kts 166°
2026-04-29 17:26 66.60024 25.74878 1412 ft 144 kts 166°
2026-04-29 17:26 66.59180 25.76073 1504 ft 143 kts 133°
2026-04-29 17:26 66.58870 25.78378 1547 ft 147 kts 89°
2026-04-29 17:26 66.59265 25.80705 1395 ft 145 kts 43°
2026-04-29 17:27 66.60014 25.82317 1215 ft 140 kts 36°
2026-04-29 17:27 66.60624 25.84130 1096 ft 137 kts 77°
2026-04-29 17:27 66.60420 25.86294 999 ft 126 kts 129°
2026-04-29 17:27 66.59862 25.87795 943 ft 111 kts 149°
2026-04-29 17:28 66.59190 25.88159 969 ft 94 kts 208°
2026-04-29 17:28 66.58650 25.87192 907 ft 95 kts 220°
2026-04-29 17:28 66.58151 25.86207 822 ft 76 kts 222°
2026-04-29 17:28 66.57761 25.85492 720 ft 68 kts 218°
2026-04-29 17:29 66.57398 25.84794 632 ft 64 kts 218°
2026-04-29 17:29 66.57091 25.84205 617 ft 43 kts 219°
2026-04-29 17:29 66.56887 25.83812 620 ft 32 kts 218°
2026-04-29 17:29 66.56784 25.83614 625 ft 25 kts 217°
2026-04-29 17:30 66.56725 25.83364 628 ft 9 kts 354°
2026-04-29 17:30 66.56788 25.83342 631 ft 11 kts 352°
2026-04-29 17:30 66.56877 25.83311 635 ft 15 kts 351°
2026-04-29 17:30 66.56918 25.83160 641 ft 12 kts 223°
2026-04-29 17:31 66.56845 25.83019 647 ft 17 kts 217°
2026-04-29 17:31 66.56750 25.82838 649 ft 15 kts 217°
2026-04-29 17:31 66.56686 25.82662 649 ft 12 kts 248°
2026-04-29 17:31 66.56693 25.82489 649 ft 8 kts 349°
2026-04-29 17:32 66.56707 25.82424 649 ft 5 kts 200°
2026-04-29 17:32 66.56701 25.82424 648 ft 0 kts 163°
2026-04-29 17:32 66.56700 25.82425 648 ft 0 kts 158°